sensor_id;sensor_type;location;lat;lon;timestamp;P1;durP1;ratioP1;P2;durP2;ratioP2
5042;SDS011;2540;50.928;6.856;2023-02-28T00:00:10;3.53;;;2.13;;
5042;SDS011;2540;50.928;6.856;2023-02-28T00:02:36;4.40;;;1.53;;
5042;SDS011;2540;50.928;6.856;2023-02-28T00:05:02;5.40;;;2.10;;
5042;SDS011;2540;50.928;6.856;2023-02-28T00:07:28;5.30;;;2.30;;
5042;SDS011;2540;50.928;6.856;2023-02-28T00:09:54;4.80;;;2.27;;
5042;SDS011;2540;50.928;6.856;2023-02-28T00:12:19;3.77;;;2.17;;
5042;SDS011;2540;50.928;6.856;2023-02-28T00:14:44;3.03;;;1.60;;
5042;SDS011;2540;50.928;6.856;2023-02-28T00:17:09;2.83;;;2.20;;
5042;SDS011;2540;50.928;6.856;2023-02-28T00:19:34;2.90;;;2.13;;
5042;SDS011;2540;50.928;6.856;2023-02-28T00:21:59;2.53;;;1.97;;
5042;SDS011;2540;50.928;6.856;2023-02-28T00:24:25;2.97;;;2.10;;
5042;SDS011;2540;50.928;6.856;2023-02-28T00:26:50;3.40;;;2.27;;
5042;SDS011;2540;50.928;6.856;2023-02-28T00:29:15;2.43;;;1.73;;
5042;SDS011;2540;50.928;6.856;2023-02-28T00:31:40;4.00;;;1.93;;
5042;SDS011;2540;50.928;6.856;2023-02-28T00:34:06;3.73;;;1.70;;
5042;SDS011;2540;50.928;6.856;2023-02-28T00:36:31;7.37;;;2.03;;
5042;SDS011;2540;50.928;6.856;2023-02-28T00:38:56;4.17;;;2.17;;
5042;SDS011;2540;50.928;6.856;2023-02-28T00:41:21;2.53;;;1.90;;
5042;SDS011;2540;50.928;6.856;2023-02-28T00:43:46;8.27;;;1.83;;
5042;SDS011;2540;50.928;6.856;2023-02-28T00:46:11;4.93;;;2.10;;
5042;SDS011;2540;50.928;6.856;2023-02-28T00:48:37;4.43;;;2.53;;
5042;SDS011;2540;50.928;6.856;2023-02-28T00:51:02;3.73;;;2.10;;
5042;SDS011;2540;50.928;6.856;2023-02-28T00:53:27;2.50;;;1.47;;
5042;SDS011;2540;50.928;6.856;2023-02-28T00:55:53;6.13;;;1.93;;
5042;SDS011;2540;50.928;6.856;2023-02-28T00:58:18;2.53;;;1.70;;
5042;SDS011;2540;50.928;6.856;2023-02-28T01:00:43;4.47;;;1.97;;
5042;SDS011;2540;50.928;6.856;2023-02-28T01:03:14;5.27;;;2.00;;
5042;SDS011;2540;50.928;6.856;2023-02-28T01:05:39;1.80;;;1.63;;
5042;SDS011;2540;50.928;6.856;2023-02-28T01:08:05;5.20;;;2.23;;
5042;SDS011;2540;50.928;6.856;2023-02-28T01:10:31;10.33;;;2.33;;
5042;SDS011;2540;50.928;6.856;2023-02-28T01:12:56;5.37;;;2.37;;
5042;SDS011;2540;50.928;6.856;2023-02-28T01:15:21;3.00;;;2.00;;
5042;SDS011;2540;50.928;6.856;2023-02-28T01:17:47;2.57;;;2.13;;
5042;SDS011;2540;50.928;6.856;2023-02-28T01:20:12;2.83;;;1.77;;
5042;SDS011;2540;50.928;6.856;2023-02-28T01:22:37;3.20;;;1.87;;
5042;SDS011;2540;50.928;6.856;2023-02-28T01:25:02;4.23;;;1.97;;
5042;SDS011;2540;50.928;6.856;2023-02-28T01:27:28;5.07;;;1.93;;
5042;SDS011;2540;50.928;6.856;2023-02-28T01:29:53;3.20;;;1.70;;
5042;SDS011;2540;50.928;6.856;2023-02-28T01:32:19;4.93;;;2.13;;
5042;SDS011;2540;50.928;6.856;2023-02-28T01:34:44;2.47;;;1.90;;
5042;SDS011;2540;50.928;6.856;2023-02-28T01:37:09;3.03;;;2.20;;
5042;SDS011;2540;50.928;6.856;2023-02-28T01:39:34;8.90;;;2.33;;
5042;SDS011;2540;50.928;6.856;2023-02-28T01:41:59;2.87;;;1.93;;
5042;SDS011;2540;50.928;6.856;2023-02-28T01:45:00;3.60;;;1.80;;
5042;SDS011;2540;50.928;6.856;2023-02-28T01:47:16;4.40;;;1.97;;
5042;SDS011;2540;50.928;6.856;2023-02-28T01:49:41;2.43;;;1.80;;
5042;SDS011;2540;50.928;6.856;2023-02-28T01:52:07;2.50;;;1.73;;
5042;SDS011;2540;50.928;6.856;2023-02-28T01:54:34;2.30;;;1.93;;
5042;SDS011;2540;50.928;6.856;2023-02-28T01:57:07;9.17;;;1.87;;
5042;SDS011;2540;50.928;6.856;2023-02-28T01:59:39;6.20;;;1.90;;
5042;SDS011;2540;50.928;6.856;2023-02-28T02:02:13;5.10;;;2.77;;
5042;SDS011;2540;50.928;6.856;2023-02-28T02:04:46;3.63;;;1.83;;
5042;SDS011;2540;50.928;6.856;2023-02-28T02:07:15;3.80;;;1.63;;
5042;SDS011;2540;50.928;6.856;2023-02-28T02:09:40;4.83;;;1.97;;
5042;SDS011;2540;50.928;6.856;2023-02-28T02:12:09;5.27;;;2.30;;
5042;SDS011;2540;50.928;6.856;2023-02-28T02:15:00;3.90;;;1.97;;
5042;SDS011;2540;50.928;6.856;2023-02-28T02:17:25;2.30;;;1.73;;
5042;SDS011;2540;50.928;6.856;2023-02-28T02:40:31;4.53;;;1.90;;
5042;SDS011;2540;50.928;6.856;2023-02-28T02:43:02;3.40;;;1.53;;
5042;SDS011;2540;50.928;6.856;2023-02-28T02:48:01;3.50;;;2.10;;
5042;SDS011;2540;50.928;6.856;2023-02-28T02:50:29;3.00;;;2.00;;
5042;SDS011;2540;50.928;6.856;2023-02-28T02:52:56;2.70;;;2.10;;
5042;SDS011;2540;50.928;6.856;2023-02-28T02:55:23;1.83;;;1.63;;
5042;SDS011;2540;50.928;6.856;2023-02-28T02:57:50;2.40;;;1.67;;
5042;SDS011;2540;50.928;6.856;2023-02-28T03:00:17;2.20;;;1.83;;
5042;SDS011;2540;50.928;6.856;2023-02-28T03:02:44;2.67;;;1.50;;
5042;SDS011;2540;50.928;6.856;2023-02-28T03:05:15;2.23;;;1.53;;
5042;SDS011;2540;50.928;6.856;2023-02-28T03:07:42;4.40;;;1.70;;
5042;SDS011;2540;50.928;6.856;2023-02-28T03:12:53;3.13;;;1.73;;
5042;SDS011;2540;50.928;6.856;2023-02-28T03:15:25;2.60;;;1.80;;
5042;SDS011;2540;50.928;6.856;2023-02-28T03:20:21;4.40;;;1.97;;
5042;SDS011;2540;50.928;6.856;2023-02-28T03:22:54;4.63;;;2.03;;
5042;SDS011;2540;50.928;6.856;2023-02-28T03:28:00;7.30;;;1.67;;
5042;SDS011;2540;50.928;6.856;2023-02-28T03:33:18;3.90;;;1.50;;
5042;SDS011;2540;50.928;6.856;2023-02-28T03:35:52;2.50;;;1.77;;
5042;SDS011;2540;50.928;6.856;2023-02-28T03:38:21;2.60;;;2.27;;
5042;SDS011;2540;50.928;6.856;2023-02-28T03:40:51;1.93;;;1.77;;
5042;SDS011;2540;50.928;6.856;2023-02-28T03:43:22;2.00;;;1.90;;
5042;SDS011;2540;50.928;6.856;2023-02-28T03:45:48;5.30;;;1.83;;
5042;SDS011;2540;50.928;6.856;2023-02-28T03:48:26;3.33;;;1.40;;
5042;SDS011;2540;50.928;6.856;2023-02-28T03:50:54;3.07;;;1.70;;
5042;SDS011;2540;50.928;6.856;2023-02-28T04:01:55;2.80;;;1.90;;
5042;SDS011;2540;50.928;6.856;2023-02-28T04:04:01;3.07;;;1.67;;
5042;SDS011;2540;50.928;6.856;2023-02-28T04:06:27;2.33;;;1.73;;
5042;SDS011;2540;50.928;6.856;2023-02-28T04:08:52;4.60;;;1.83;;
5042;SDS011;2540;50.928;6.856;2023-02-28T04:13:43;2.23;;;1.77;;
5042;SDS011;2540;50.928;6.856;2023-02-28T04:16:09;3.87;;;1.73;;
5042;SDS011;2540;50.928;6.856;2023-02-28T04:18:39;2.30;;;1.60;;
5042;SDS011;2540;50.928;6.856;2023-02-28T04:21:05;2.67;;;1.73;;
5042;SDS011;2540;50.928;6.856;2023-02-28T04:23:30;4.90;;;1.70;;
5042;SDS011;2540;50.928;6.856;2023-02-28T04:25:56;5.80;;;2.20;;
5042;SDS011;2540;50.928;6.856;2023-02-28T04:28:21;2.97;;;1.80;;
5042;SDS011;2540;50.928;6.856;2023-02-28T04:30:46;2.00;;;1.77;;
5042;SDS011;2540;50.928;6.856;2023-02-28T04:33:11;2.47;;;2.00;;
5042;SDS011;2540;50.928;6.856;2023-02-28T04:35:37;3.87;;;2.10;;
5042;SDS011;2540;50.928;6.856;2023-02-28T04:38:02;3.87;;;2.10;;
5042;SDS011;2540;50.928;6.856;2023-02-28T04:40:27;3.30;;;2.20;;
5042;SDS011;2540;50.928;6.856;2023-02-28T04:42:52;3.53;;;2.20;;
5042;SDS011;2540;50.928;6.856;2023-02-28T04:45:17;4.93;;;2.10;;
5042;SDS011;2540;50.928;6.856;2023-02-28T04:47:43;2.70;;;2.20;;
5042;SDS011;2540;50.928;6.856;2023-02-28T04:50:08;3.47;;;2.07;;
5042;SDS011;2540;50.928;6.856;2023-02-28T04:52:33;5.20;;;2.37;;
5042;SDS011;2540;50.928;6.856;2023-02-28T04:54:58;3.87;;;2.07;;
5042;SDS011;2540;50.928;6.856;2023-02-28T04:57:24;2.47;;;1.90;;
5042;SDS011;2540;50.928;6.856;2023-02-28T04:59:49;6.33;;;2.70;;
5042;SDS011;2540;50.928;6.856;2023-02-28T05:02:14;3.70;;;1.90;;
5042;SDS011;2540;50.928;6.856;2023-02-28T05:04:39;6.53;;;2.40;;
5042;SDS011;2540;50.928;6.856;2023-02-28T05:07:05;4.90;;;2.17;;
5042;SDS011;2540;50.928;6.856;2023-02-28T05:09:30;6.07;;;2.60;;
5042;SDS011;2540;50.928;6.856;2023-02-28T05:11:55;7.77;;;2.47;;
5042;SDS011;2540;50.928;6.856;2023-02-28T05:14:20;3.50;;;2.20;;
5042;SDS011;2540;50.928;6.856;2023-02-28T05:16:45;4.13;;;2.60;;
5042;SDS011;2540;50.928;6.856;2023-02-28T05:19:11;3.20;;;2.37;;
5042;SDS011;2540;50.928;6.856;2023-02-28T05:21:36;3.80;;;2.20;;
5042;SDS011;2540;50.928;6.856;2023-02-28T05:24:04;3.33;;;2.20;;
5042;SDS011;2540;50.928;6.856;2023-02-28T05:26:30;3.43;;;2.43;;
5042;SDS011;2540;50.928;6.856;2023-02-28T05:28:55;2.53;;;1.87;;
5042;SDS011;2540;50.928;6.856;2023-02-28T05:31:21;3.70;;;2.23;;
5042;SDS011;2540;50.928;6.856;2023-02-28T05:33:47;2.90;;;2.00;;
5042;SDS011;2540;50.928;6.856;2023-02-28T05:36:12;3.80;;;2.13;;
5042;SDS011;2540;50.928;6.856;2023-02-28T05:38:37;5.50;;;2.23;;
5042;SDS011;2540;50.928;6.856;2023-02-28T05:41:06;2.50;;;1.80;;
5042;SDS011;2540;50.928;6.856;2023-02-28T05:43:32;2.33;;;2.00;;
5042;SDS011;2540;50.928;6.856;2023-02-28T05:45:57;3.70;;;2.03;;
5042;SDS011;2540;50.928;6.856;2023-02-28T05:48:22;1.80;;;1.70;;
5042;SDS011;2540;50.928;6.856;2023-02-28T05:50:47;2.53;;;1.80;;
5042;SDS011;2540;50.928;6.856;2023-02-28T05:53:13;2.80;;;2.17;;
5042;SDS011;2540;50.928;6.856;2023-02-28T05:55:38;2.13;;;1.93;;
5042;SDS011;2540;50.928;6.856;2023-02-28T05:58:04;5.33;;;1.93;;
5042;SDS011;2540;50.928;6.856;2023-02-28T06:00:29;2.17;;;1.97;;
5042;SDS011;2540;50.928;6.856;2023-02-28T06:02:54;3.80;;;2.30;;
5042;SDS011;2540;50.928;6.856;2023-02-28T06:05:22;2.43;;;2.10;;
5042;SDS011;2540;50.928;6.856;2023-02-28T06:07:48;2.47;;;1.90;;
5042;SDS011;2540;50.928;6.856;2023-02-28T06:10:13;4.43;;;2.07;;
5042;SDS011;2540;50.928;6.856;2023-02-28T06:12:39;3.60;;;1.93;;
5042;SDS011;2540;50.928;6.856;2023-02-28T06:15:06;2.00;;;1.80;;
5042;SDS011;2540;50.928;6.856;2023-02-28T06:17:31;12.70;;;2.83;;
5042;SDS011;2540;50.928;6.856;2023-02-28T06:19:57;4.40;;;1.93;;
5042;SDS011;2540;50.928;6.856;2023-02-28T06:22:22;4.47;;;2.03;;
5042;SDS011;2540;50.928;6.856;2023-02-28T06:24:47;2.10;;;1.60;;
5042;SDS011;2540;50.928;6.856;2023-02-28T06:27:12;2.70;;;2.10;;
5042;SDS011;2540;50.928;6.856;2023-02-28T06:29:37;2.50;;;1.90;;
5042;SDS011;2540;50.928;6.856;2023-02-28T06:32:04;2.23;;;2.00;;
5042;SDS011;2540;50.928;6.856;2023-02-28T06:34:30;2.13;;;1.93;;
5042;SDS011;2540;50.928;6.856;2023-02-28T06:36:55;4.97;;;1.73;;
5042;SDS011;2540;50.928;6.856;2023-02-28T06:39:21;4.33;;;1.70;;
5042;SDS011;2540;50.928;6.856;2023-02-28T06:41:46;2.10;;;1.90;;
5042;SDS011;2540;50.928;6.856;2023-02-28T06:44:13;3.50;;;1.83;;
5042;SDS011;2540;50.928;6.856;2023-02-28T06:46:39;6.20;;;1.87;;
5042;SDS011;2540;50.928;6.856;2023-02-28T06:49:05;11.60;;;2.93;;
5042;SDS011;2540;50.928;6.856;2023-02-28T06:51:34;8.57;;;2.33;;
5042;SDS011;2540;50.928;6.856;2023-02-28T06:53:59;3.10;;;2.17;;
5042;SDS011;2540;50.928;6.856;2023-02-28T06:56:24;5.27;;;2.30;;
5042;SDS011;2540;50.928;6.856;2023-02-28T06:58:50;4.20;;;1.87;;
5042;SDS011;2540;50.928;6.856;2023-02-28T07:01:15;2.50;;;2.23;;
5042;SDS011;2540;50.928;6.856;2023-02-28T07:03:41;2.47;;;1.97;;
5042;SDS011;2540;50.928;6.856;2023-02-28T07:06:06;2.93;;;1.87;;
5042;SDS011;2540;50.928;6.856;2023-02-28T07:08:32;7.13;;;2.00;;
5042;SDS011;2540;50.928;6.856;2023-02-28T07:10:57;6.77;;;2.40;;
5042;SDS011;2540;50.928;6.856;2023-02-28T07:13:23;5.30;;;2.00;;
5042;SDS011;2540;50.928;6.856;2023-02-28T07:16:09;4.30;;;2.23;;
5042;SDS011;2540;50.928;6.856;2023-02-28T07:18:34;4.50;;;2.50;;
5042;SDS011;2540;50.928;6.856;2023-02-28T07:21:03;6.20;;;2.47;;
5042;SDS011;2540;50.928;6.856;2023-02-28T07:23:28;2.73;;;2.13;;
5042;SDS011;2540;50.928;6.856;2023-02-28T07:25:54;3.27;;;2.10;;
5042;SDS011;2540;50.928;6.856;2023-02-28T07:28:19;2.80;;;1.93;;
5042;SDS011;2540;50.928;6.856;2023-02-28T07:30:44;2.30;;;2.10;;
5042;SDS011;2540;50.928;6.856;2023-02-28T07:33:09;2.47;;;2.27;;
5042;SDS011;2540;50.928;6.856;2023-02-28T07:35:35;4.23;;;2.47;;
5042;SDS011;2540;50.928;6.856;2023-02-28T07:38:00;7.67;;;2.53;;
5042;SDS011;2540;50.928;6.856;2023-02-28T07:40:26;2.20;;;1.80;;
5042;SDS011;2540;50.928;6.856;2023-02-28T07:42:51;5.50;;;2.00;;
5042;SDS011;2540;50.928;6.856;2023-02-28T07:45:16;2.77;;;2.10;;
5042;SDS011;2540;50.928;6.856;2023-02-28T07:47:42;3.93;;;1.60;;
5042;SDS011;2540;50.928;6.856;2023-02-28T07:50:09;2.53;;;1.70;;
5042;SDS011;2540;50.928;6.856;2023-02-28T07:52:36;3.20;;;2.20;;
5042;SDS011;2540;50.928;6.856;2023-02-28T07:55:01;6.10;;;1.67;;
5042;SDS011;2540;50.928;6.856;2023-02-28T07:57:26;7.23;;;1.83;;
5042;SDS011;2540;50.928;6.856;2023-02-28T07:59:51;5.73;;;2.40;;
5042;SDS011;2540;50.928;6.856;2023-02-28T08:02:17;1.83;;;1.60;;
5042;SDS011;2540;50.928;6.856;2023-02-28T08:04:43;5.80;;;2.20;;
5042;SDS011;2540;50.928;6.856;2023-02-28T08:07:09;2.37;;;1.50;;
5042;SDS011;2540;50.928;6.856;2023-02-28T08:09:38;2.63;;;1.50;;
5042;SDS011;2540;50.928;6.856;2023-02-28T08:12:03;4.37;;;2.10;;
5042;SDS011;2540;50.928;6.856;2023-02-28T08:14:28;1.60;;;1.50;;
5042;SDS011;2540;50.928;6.856;2023-02-28T08:16:53;3.00;;;1.73;;
5042;SDS011;2540;50.928;6.856;2023-02-28T08:19:19;2.40;;;1.60;;
5042;SDS011;2540;50.928;6.856;2023-02-28T08:21:44;3.10;;;1.67;;
5042;SDS011;2540;50.928;6.856;2023-02-28T08:24:09;4.03;;;1.97;;
5042;SDS011;2540;50.928;6.856;2023-02-28T08:26:35;2.00;;;1.67;;
5042;SDS011;2540;50.928;6.856;2023-02-28T08:29:00;2.97;;;1.67;;
5042;SDS011;2540;50.928;6.856;2023-02-28T08:31:25;2.13;;;1.90;;
5042;SDS011;2540;50.928;6.856;2023-02-28T08:33:50;2.03;;;1.80;;
5042;SDS011;2540;50.928;6.856;2023-02-28T08:36:17;2.67;;;1.70;;
5042;SDS011;2540;50.928;6.856;2023-02-28T08:38:43;1.50;;;1.40;;
5042;SDS011;2540;50.928;6.856;2023-02-28T08:41:09;2.20;;;1.80;;
5042;SDS011;2540;50.928;6.856;2023-02-28T08:43:35;2.57;;;1.53;;
5042;SDS011;2540;50.928;6.856;2023-02-28T08:46:00;4.40;;;1.50;;
5042;SDS011;2540;50.928;6.856;2023-02-28T08:48:26;2.50;;;1.50;;
5042;SDS011;2540;50.928;6.856;2023-02-28T08:50:58;2.40;;;1.53;;
5042;SDS011;2540;50.928;6.856;2023-02-28T08:53:24;1.67;;;1.27;;
5042;SDS011;2540;50.928;6.856;2023-02-28T08:55:59;3.43;;;1.67;;
5042;SDS011;2540;50.928;6.856;2023-02-28T08:58:24;2.20;;;1.43;;
5042;SDS011;2540;50.928;6.856;2023-02-28T09:00:50;2.70;;;1.10;;
5042;SDS011;2540;50.928;6.856;2023-02-28T09:03:15;2.33;;;1.30;;
5042;SDS011;2540;50.928;6.856;2023-02-28T09:05:40;1.77;;;1.47;;
5042;SDS011;2540;50.928;6.856;2023-02-28T09:08:06;1.40;;;1.13;;
5042;SDS011;2540;50.928;6.856;2023-02-28T09:10:31;4.67;;;1.60;;
5042;SDS011;2540;50.928;6.856;2023-02-28T09:12:56;1.77;;;1.20;;
5042;SDS011;2540;50.928;6.856;2023-02-28T09:15:21;1.87;;;1.20;;
5042;SDS011;2540;50.928;6.856;2023-02-28T09:17:46;2.37;;;1.10;;
5042;SDS011;2540;50.928;6.856;2023-02-28T09:20:12;1.83;;;1.10;;
5042;SDS011;2540;50.928;6.856;2023-02-28T09:22:37;1.30;;;1.20;;
5042;SDS011;2540;50.928;6.856;2023-02-28T09:25:02;1.53;;;1.30;;
5042;SDS011;2540;50.928;6.856;2023-02-28T09:27:27;5.93;;;1.50;;
5042;SDS011;2540;50.928;6.856;2023-02-28T09:29:52;1.50;;;1.10;;
5042;SDS011;2540;50.928;6.856;2023-02-28T09:32:18;1.33;;;1.10;;
5042;SDS011;2540;50.928;6.856;2023-02-28T09:34:43;0.97;;;0.97;;
5042;SDS011;2540;50.928;6.856;2023-02-28T09:37:08;2.20;;;1.20;;
5042;SDS011;2540;50.928;6.856;2023-02-28T09:39:33;1.53;;;1.23;;
5042;SDS011;2540;50.928;6.856;2023-02-28T09:41:59;1.80;;;1.20;;
5042;SDS011;2540;50.928;6.856;2023-02-28T09:44:35;3.03;;;1.20;;
5042;SDS011;2540;50.928;6.856;2023-02-28T09:49:58;4.00;;;1.60;;
5042;SDS011;2540;50.928;6.856;2023-02-28T09:52:28;1.13;;;1.03;;
5042;SDS011;2540;50.928;6.856;2023-02-28T09:54:53;1.80;;;1.20;;
5042;SDS011;2540;50.928;6.856;2023-02-28T10:02:19;1.50;;;1.30;;
5042;SDS011;2540;50.928;6.856;2023-02-28T10:04:59;2.83;;;1.30;;
5042;SDS011;2540;50.928;6.856;2023-02-28T10:10:03;3.40;;;1.33;;
5042;SDS011;2540;50.928;6.856;2023-02-28T10:12:32;1.90;;;1.07;;
5042;SDS011;2540;50.928;6.856;2023-02-28T10:14:58;4.43;;;1.40;;
5042;SDS011;2540;50.928;6.856;2023-02-28T10:17:25;1.53;;;1.10;;
5042;SDS011;2540;50.928;6.856;2023-02-28T10:19:59;1.37;;;1.27;;
5042;SDS011;2540;50.928;6.856;2023-02-28T10:22:27;1.83;;;1.23;;
5042;SDS011;2540;50.928;6.856;2023-02-28T10:24:54;1.63;;;1.20;;
5042;SDS011;2540;50.928;6.856;2023-02-28T10:27:22;3.03;;;1.27;;
5042;SDS011;2540;50.928;6.856;2023-02-28T10:29:49;2.40;;;1.03;;
5042;SDS011;2540;50.928;6.856;2023-02-28T10:32:18;2.50;;;1.43;;
5042;SDS011;2540;50.928;6.856;2023-02-28T10:34:44;1.53;;;1.30;;
5042;SDS011;2540;50.928;6.856;2023-02-28T10:37:10;4.30;;;1.23;;
5042;SDS011;2540;50.928;6.856;2023-02-28T10:42:02;1.90;;;1.20;;
5042;SDS011;2540;50.928;6.856;2023-02-28T10:44:27;1.37;;;1.27;;
5042;SDS011;2540;50.928;6.856;2023-02-28T10:46:53;2.07;;;1.37;;
5042;SDS011;2540;50.928;6.856;2023-02-28T10:49:25;1.60;;;1.23;;
5042;SDS011;2540;50.928;6.856;2023-02-28T10:51:52;1.77;;;1.43;;
5042;SDS011;2540;50.928;6.856;2023-02-28T10:54:28;2.50;;;1.20;;
5042;SDS011;2540;50.928;6.856;2023-02-28T10:57:05;1.43;;;1.17;;
5042;SDS011;2540;50.928;6.856;2023-02-28T10:59:31;1.90;;;1.47;;
5042;SDS011;2540;50.928;6.856;2023-02-28T11:01:57;2.40;;;1.30;;
5042;SDS011;2540;50.928;6.856;2023-02-28T11:06:47;1.40;;;1.30;;
5042;SDS011;2540;50.928;6.856;2023-02-28T11:09:23;1.50;;;1.20;;
5042;SDS011;2540;50.928;6.856;2023-02-28T11:11:49;2.00;;;1.40;;
5042;SDS011;2540;50.928;6.856;2023-02-28T11:14:18;1.77;;;1.30;;
5042;SDS011;2540;50.928;6.856;2023-02-28T11:16:44;3.37;;;1.67;;
5042;SDS011;2540;50.928;6.856;2023-02-28T11:19:15;1.17;;;1.07;;
5042;SDS011;2540;50.928;6.856;2023-02-28T11:21:45;1.70;;;1.40;;
5042;SDS011;2540;50.928;6.856;2023-02-28T11:24:20;4.30;;;1.47;;
5042;SDS011;2540;50.928;6.856;2023-02-28T11:26:47;2.40;;;1.83;;
5042;SDS011;2540;50.928;6.856;2023-02-28T11:31:41;1.47;;;1.30;;
5042;SDS011;2540;50.928;6.856;2023-02-28T11:34:26;1.87;;;1.33;;
5042;SDS011;2540;50.928;6.856;2023-02-28T11:36:53;1.43;;;1.10;;
5042;SDS011;2540;50.928;6.856;2023-02-28T11:39:18;1.83;;;1.30;;
5042;SDS011;2540;50.928;6.856;2023-02-28T11:44:14;1.57;;;1.33;;
5042;SDS011;2540;50.928;6.856;2023-02-28T11:46:49;2.03;;;1.43;;
5042;SDS011;2540;50.928;6.856;2023-02-28T11:59:46;8.40;;;1.67;;
5042;SDS011;2540;50.928;6.856;2023-02-28T12:04:56;4.13;;;1.70;;
5042;SDS011;2540;50.928;6.856;2023-02-28T12:07:31;6.40;;;1.77;;
5042;SDS011;2540;50.928;6.856;2023-02-28T12:10:20;1.93;;;1.67;;
5042;SDS011;2540;50.928;6.856;2023-02-28T12:18:26;2.17;;;1.70;;
5042;SDS011;2540;50.928;6.856;2023-02-28T12:28:48;3.67;;;1.70;;
5042;SDS011;2540;50.928;6.856;2023-02-28T12:31:20;1.40;;;1.30;;
5042;SDS011;2540;50.928;6.856;2023-02-28T12:33:53;5.20;;;1.50;;
5042;SDS011;2540;50.928;6.856;2023-02-28T12:36:20;3.27;;;1.80;;
5042;SDS011;2540;50.928;6.856;2023-02-28T12:39:00;2.13;;;1.63;;
5042;SDS011;2540;50.928;6.856;2023-02-28T12:43:55;1.37;;;1.27;;
5042;SDS011;2540;50.928;6.856;2023-02-28T12:46:25;2.20;;;1.43;;
5042;SDS011;2540;50.928;6.856;2023-02-28T12:48:55;2.93;;;2.07;;
5042;SDS011;2540;50.928;6.856;2023-02-28T12:51:21;3.90;;;1.57;;
5042;SDS011;2540;50.928;6.856;2023-02-28T12:56:51;2.07;;;1.87;;
5042;SDS011;2540;50.928;6.856;2023-02-28T13:02:00;2.87;;;2.57;;
5042;SDS011;2540;50.928;6.856;2023-02-28T13:09:54;2.70;;;1.70;;
5042;SDS011;2540;50.928;6.856;2023-02-28T13:12:19;1.50;;;1.40;;
5042;SDS011;2540;50.928;6.856;2023-02-28T13:14:45;1.90;;;1.60;;
5042;SDS011;2540;50.928;6.856;2023-02-28T13:17:11;1.80;;;1.52;;
5042;SDS011;2540;50.928;6.856;2023-02-28T13:19:38;4.10;;;2.00;;
5042;SDS011;2540;50.928;6.856;2023-02-28T13:22:04;3.00;;;2.30;;
5042;SDS011;2540;50.928;6.856;2023-02-28T13:27:10;5.90;;;2.63;;
5042;SDS011;2540;50.928;6.856;2023-02-28T13:29:40;1.90;;;1.80;;
5042;SDS011;2540;50.928;6.856;2023-02-28T13:35:34;2.93;;;2.20;;
5042;SDS011;2540;50.928;6.856;2023-02-28T13:47:28;2.97;;;2.50;;
5042;SDS011;2540;50.928;6.856;2023-02-28T13:49:54;4.27;;;2.80;;
5042;SDS011;2540;50.928;6.856;2023-02-28T13:52:22;3.67;;;2.57;;
5042;SDS011;2540;50.928;6.856;2023-02-28T14:00:13;3.40;;;2.43;;
5042;SDS011;2540;50.928;6.856;2023-02-28T14:07:48;3.83;;;2.80;;
5042;SDS011;2540;50.928;6.856;2023-02-28T14:10:22;4.00;;;2.50;;
5042;SDS011;2540;50.928;6.856;2023-02-28T14:17:52;6.00;;;2.80;;
5042;SDS011;2540;50.928;6.856;2023-02-28T14:20:18;3.10;;;2.40;;
5042;SDS011;2540;50.928;6.856;2023-02-28T14:30:41;4.57;;;2.90;;
5042;SDS011;2540;50.928;6.856;2023-02-28T14:38:27;3.67;;;2.13;;
5042;SDS011;2540;50.928;6.856;2023-02-28T14:40:53;2.20;;;2.00;;
5042;SDS011;2540;50.928;6.856;2023-02-28T14:43:20;2.77;;;2.17;;
5042;SDS011;2540;50.928;6.856;2023-02-28T14:45:49;3.30;;;2.60;;
5042;SDS011;2540;50.928;6.856;2023-02-28T14:48:15;4.10;;;2.63;;
5042;SDS011;2540;50.928;6.856;2023-02-28T14:50:40;4.47;;;2.93;;
5042;SDS011;2540;50.928;6.856;2023-02-28T14:53:15;4.17;;;2.67;;
5042;SDS011;2540;50.928;6.856;2023-02-28T14:55:43;3.70;;;2.50;;
5042;SDS011;2540;50.928;6.856;2023-02-28T14:58:18;3.20;;;2.67;;
5042;SDS011;2540;50.928;6.856;2023-02-28T15:00:48;3.20;;;2.57;;
5042;SDS011;2540;50.928;6.856;2023-02-28T15:03:35;3.17;;;2.63;;
5042;SDS011;2540;50.928;6.856;2023-02-28T15:06:03;3.30;;;2.50;;
5042;SDS011;2540;50.928;6.856;2023-02-28T15:08:29;2.57;;;2.37;;
5042;SDS011;2540;50.928;6.856;2023-02-28T15:11:01;3.13;;;2.63;;
5042;SDS011;2540;50.928;6.856;2023-02-28T15:16:03;4.30;;;2.50;;
5042;SDS011;2540;50.928;6.856;2023-02-28T15:18:30;5.17;;;2.77;;
5042;SDS011;2540;50.928;6.856;2023-02-28T15:21:02;4.30;;;2.93;;
5042;SDS011;2540;50.928;6.856;2023-02-28T15:23:28;6.30;;;2.60;;
5042;SDS011;2540;50.928;6.856;2023-02-28T15:25:54;7.07;;;3.03;;
5042;SDS011;2540;50.928;6.856;2023-02-28T15:28:20;3.23;;;2.40;;
5042;SDS011;2540;50.928;6.856;2023-02-28T15:30:51;6.00;;;2.97;;
5042;SDS011;2540;50.928;6.856;2023-02-28T15:33:18;6.47;;;2.80;;
5042;SDS011;2540;50.928;6.856;2023-02-28T15:35:44;2.50;;;1.90;;
5042;SDS011;2540;50.928;6.856;2023-02-28T15:38:42;3.50;;;2.20;;
5042;SDS011;2540;50.928;6.856;2023-02-28T15:41:01;2.80;;;2.13;;
5042;SDS011;2540;50.928;6.856;2023-02-28T15:43:27;4.00;;;2.93;;
5042;SDS011;2540;50.928;6.856;2023-02-28T15:48:31;3.50;;;2.63;;
5042;SDS011;2540;50.928;6.856;2023-02-28T15:53:24;2.63;;;2.43;;
5042;SDS011;2540;50.928;6.856;2023-02-28T15:55:52;3.80;;;2.77;;
5042;SDS011;2540;50.928;6.856;2023-02-28T15:58:18;2.87;;;2.20;;
5042;SDS011;2540;50.928;6.856;2023-02-28T16:00:44;4.50;;;2.60;;
5042;SDS011;2540;50.928;6.856;2023-02-28T16:03:24;4.43;;;2.90;;
5042;SDS011;2540;50.928;6.856;2023-02-28T16:06:07;4.13;;;2.40;;
5042;SDS011;2540;50.928;6.856;2023-02-28T16:08:32;3.00;;;2.20;;
5042;SDS011;2540;50.928;6.856;2023-02-28T16:10:58;4.30;;;2.20;;
5042;SDS011;2540;50.928;6.856;2023-02-28T16:13:23;3.63;;;2.10;;
5042;SDS011;2540;50.928;6.856;2023-02-28T16:15:48;2.20;;;2.03;;
5042;SDS011;2540;50.928;6.856;2023-02-28T16:18:16;2.90;;;2.60;;
5042;SDS011;2540;50.928;6.856;2023-02-28T16:20:41;4.27;;;2.57;;
5042;SDS011;2540;50.928;6.856;2023-02-28T16:23:09;3.50;;;2.43;;
5042;SDS011;2540;50.928;6.856;2023-02-28T16:25:35;7.00;;;2.10;;
5042;SDS011;2540;50.928;6.856;2023-02-28T16:28:01;3.67;;;2.33;;
5042;SDS011;2540;50.928;6.856;2023-02-28T16:30:27;4.30;;;2.40;;
5042;SDS011;2540;50.928;6.856;2023-02-28T16:32:54;5.67;;;2.43;;
5042;SDS011;2540;50.928;6.856;2023-02-28T16:35:20;3.70;;;2.30;;
5042;SDS011;2540;50.928;6.856;2023-02-28T16:37:45;4.50;;;2.17;;
5042;SDS011;2540;50.928;6.856;2023-02-28T16:40:17;2.97;;;2.30;;
5042;SDS011;2540;50.928;6.856;2023-02-28T16:42:43;3.20;;;2.20;;
5042;SDS011;2540;50.928;6.856;2023-02-28T16:45:20;7.10;;;2.40;;
5042;SDS011;2540;50.928;6.856;2023-02-28T16:47:46;2.80;;;2.20;;
5042;SDS011;2540;50.928;6.856;2023-02-28T16:50:19;10.60;;;2.43;;
5042;SDS011;2540;50.928;6.856;2023-02-28T16:52:44;2.20;;;1.70;;
5042;SDS011;2540;50.928;6.856;2023-02-28T16:55:10;3.20;;;2.40;;
5042;SDS011;2540;50.928;6.856;2023-02-28T16:57:35;3.50;;;2.07;;
5042;SDS011;2540;50.928;6.856;2023-02-28T17:00:01;4.13;;;2.10;;
5042;SDS011;2540;50.928;6.856;2023-02-28T17:02:26;3.20;;;2.00;;
5042;SDS011;2540;50.928;6.856;2023-02-28T17:04:51;3.50;;;1.93;;
5042;SDS011;2540;50.928;6.856;2023-02-28T17:07:16;5.33;;;2.70;;
5042;SDS011;2540;50.928;6.856;2023-02-28T17:09:42;3.70;;;2.30;;
5042;SDS011;2540;50.928;6.856;2023-02-28T17:12:07;5.20;;;2.27;;
5042;SDS011;2540;50.928;6.856;2023-02-28T17:14:33;2.97;;;2.13;;
5042;SDS011;2540;50.928;6.856;2023-02-28T17:16:59;4.50;;;2.40;;
5042;SDS011;2540;50.928;6.856;2023-02-28T17:19:24;7.47;;;3.77;;
5042;SDS011;2540;50.928;6.856;2023-02-28T17:21:49;3.63;;;2.17;;
5042;SDS011;2540;50.928;6.856;2023-02-28T17:24:14;4.20;;;2.10;;
5042;SDS011;2540;50.928;6.856;2023-02-28T17:26:40;3.60;;;2.53;;
5042;SDS011;2540;50.928;6.856;2023-02-28T17:29:09;4.67;;;2.50;;
5042;SDS011;2540;50.928;6.856;2023-02-28T17:31:36;5.30;;;2.80;;
5042;SDS011;2540;50.928;6.856;2023-02-28T17:34:03;7.47;;;3.43;;
5042;SDS011;2540;50.928;6.856;2023-02-28T17:36:28;4.90;;;2.90;;
5042;SDS011;2540;50.928;6.856;2023-02-28T17:38:54;7.10;;;2.93;;
5042;SDS011;2540;50.928;6.856;2023-02-28T17:41:20;6.00;;;2.37;;
5042;SDS011;2540;50.928;6.856;2023-02-28T17:43:45;4.63;;;2.53;;
5042;SDS011;2540;50.928;6.856;2023-02-28T17:46:15;4.80;;;3.00;;
5042;SDS011;2540;50.928;6.856;2023-02-28T17:48:41;4.03;;;2.70;;
5042;SDS011;2540;50.928;6.856;2023-02-28T17:51:06;3.50;;;2.80;;